Time;durP1;ratioP1;P1;durP2;ratioP2;P2;SDS_P1;SDS_P2;PMS_P1;PMS_P2;Temp;Humidity;BMP_temperature;BMP_pressure;BME280_temperature;BME280_humidity;BME280_pressure;Samples;Min_cycle;Max_cycle;Signal;HPM_P1;HPM_P2
2021/07/28 00:00:22;;;;;;;8.52;6.50;;;;;;;14.95;100.00;92959.50;2106574;28;20024;-84
2021/07/28 00:01:23;;;;;;;13.02;6.55;;;;;;;14.98;100.00;92964.75;2104193;28;20050;-84
2021/07/28 00:02:24;;;;;;;7.45;6.10;;;;;;;14.99;100.00;92968.94;2115334;27;20129;-84
2021/07/28 00:03:25;;;;;;;7.45;6.65;;;;;;;14.98;100.00;92972.81;2106629;28;20119;-84
2021/07/28 00:04:26;;;;;;;10.18;6.90;;;;;;;15.02;100.00;92970.72;2104821;28;20020;-84
2021/07/28 00:05:27;;;;;;;7.90;6.53;;;;;;;15.04;100.00;92971.03;2098279;28;20020;-84
2021/07/28 00:06:28;;;;;;;8.32;6.68;;;;;;;15.05;100.00;92963.69;2113299;27;20051;-83
2021/07/28 00:07:29;;;;;;;8.40;6.95;;;;;;;15.04;100.00;92971.03;2114268;28;20023;-85
2021/07/28 00:08:29;;;;;;;8.18;6.57;;;;;;;15.01;100.00;92971.94;2098203;28;20021;-83
2021/07/28 00:09:31;;;;;;;7.95;7.15;;;;;;;14.97;100.00;92968.63;2094723;28;20501;-85
2021/07/28 00:10:32;;;;;;;8.55;6.53;;;;;;;15.02;100.00;92973.41;2115222;28;20023;-86
2021/07/28 00:11:33;;;;;;;7.43;6.35;;;;;;;15.08;100.00;92976.25;2115165;28;20016;-84
2021/07/28 00:12:34;;;;;;;6.80;6.10;;;;;;;15.03;100.00;92976.84;2098474;28;20079;-85
2021/07/28 00:13:34;;;;;;;9.23;6.57;;;;;;;14.94;100.00;92972.22;2106594;28;20028;-84
2021/07/28 00:14:36;;;;;;;8.20;5.80;;;;;;;14.95;100.00;92981.03;2106547;28;20050;-84
2021/07/28 00:15:37;;;;;;;6.90;6.25;;;;;;;15.00;100.00;92975.78;2106662;28;20026;-84
2021/07/28 00:16:38;;;;;;;17.25;6.53;;;;;;;14.99;100.00;92968.94;2095788;28;20020;-84
2021/07/28 00:17:51;;;;;;;8.68;6.70;;;;;;;14.95;100.00;92973.69;2106893;28;20012;-85
2021/07/28 00:19:18;;;;;;;12.00;6.38;;;;;;;14.93;100.00;92967.28;2111368;28;20024;-83
2021/07/28 00:24:12;;;;;;;13.23;6.80;;;;;;;14.91;100.00;92975.78;2121338;27;20468;-83
2021/07/28 00:25:12;;;;;;;7.43;6.72;;;;;;;14.92;100.00;92973.84;2106405;28;20035;-84
2021/07/28 00:26:13;;;;;;;7.82;6.13;;;;;;;14.93;100.00;92967.28;2098254;28;20024;-84
2021/07/28 00:27:14;;;;;;;7.88;6.45;;;;;;;14.97;100.00;92975.94;2090019;28;20026;-85
2021/07/28 00:28:15;;;;;;;7.57;6.72;;;;;;;14.97;100.00;92971.31;2102013;28;20020;-84
2021/07/28 00:29:16;;;;;;;8.45;7.00;;;;;;;14.98;100.00;92972.06;2111434;28;20019;-84
2021/07/28 00:30:17;;;;;;;8.27;6.75;;;;;;;14.99;100.00;92966.22;2123404;27;20019;-85
2021/07/28 00:31:18;;;;;;;8.15;7.25;;;;;;;14.98;100.00;92967.44;2114700;28;20488;-86
2021/07/28 00:32:19;;;;;;;7.53;6.90;;;;;;;14.99;100.00;92963.53;2106504;28;20031;-84
2021/07/28 00:33:20;;;;;;;11.73;6.90;;;;;;;15.01;100.00;92968.47;2098177;28;20021;-84
2021/07/28 00:34:21;;;;;;;10.70;6.35;;;;;;;15.01;100.00;92968.47;2096614;28;20581;-84
2021/07/28 00:35:22;;;;;;;8.40;6.60;;;;;;;15.01;100.00;92977.31;2106509;28;20139;-84
2021/07/28 00:36:23;;;;;;;7.88;6.03;;;;;;;15.00;100.00;92967.72;2114755;28;20030;-83
2021/07/28 00:37:24;;;;;;;21.75;7.15;;;;;;;14.99;100.00;92966.22;2108416;28;20070;-84
2021/07/28 00:38:25;;;;;;;7.50;6.72;;;;;;;15.04;100.00;92968.31;2098208;28;20020;-84
2021/07/28 00:39:26;;;;;;;8.93;7.22;;;;;;;15.03;100.00;92976.84;2113895;28;20458;-83
2021/07/28 00:40:27;;;;;;;8.15;7.18;;;;;;;15.01;100.00;92971.94;2114078;28;20027;-84
2021/07/28 00:41:28;;;;;;;10.70;7.15;;;;;;;15.03;100.00;92968.78;2097964;28;20024;-84
2021/07/28 00:42:30;;;;;;;7.15;6.45;;;;;;;15.04;100.00;92970.28;2106440;28;20395;-84
2021/07/28 00:43:32;;;;;;;9.70;6.60;;;;;;;15.03;100.00;92966.84;2106479;28;20062;-84
2021/07/28 00:44:33;;;;;;;8.45;6.63;;;;;;;15.03;100.00;92969.53;2103580;28;20107;-85
2021/07/28 00:45:33;;;;;;;6.57;5.88;;;;;;;15.02;100.00;92959.97;2110370;28;20028;-83
2021/07/28 00:46:34;;;;;;;7.53;6.78;;;;;;;15.02;100.00;92965.34;2112298;28;20047;-84
2021/07/28 00:47:35;;;;;;;7.47;6.75;;;;;;;15.03;100.00;92966.84;2104186;28;20020;-84
2021/07/28 00:48:36;;;;;;;8.32;6.80;;;;;;;15.01;100.00;92966.56;2106317;28;20063;-84
2021/07/28 00:49:37;;;;;;;12.48;6.50;;;;;;;14.97;100.00;92960.56;2114842;28;20384;-84
2021/07/28 00:50:39;;;;;;;8.00;6.47;;;;;;;14.94;100.00;92960.69;2114277;28;20127;-85
2021/07/28 00:51:40;;;;;;;10.98;6.97;;;;;;;14.94;100.00;92955.31;2114737;28;20107;-84
2021/07/28 00:52:48;;;;;;;6.75;6.10;;;;;;;14.93;100.00;92951.88;2106081;28;20170;-84
2021/07/28 00:53:49;;;;;;;8.68;6.95;;;;;;;14.94;100.00;92953.38;2099774;28;20024;-84
2021/07/28 00:54:50;;;;;;;8.23;6.38;;;;;;;14.88;100.00;92947.06;2106431;28;20024;-84
2021/07/28 00:55:53;;;;;;;8.35;6.43;;;;;;;14.86;100.00;92950.22;2114752;28;20023;-83
2021/07/28 00:56:54;;;;;;;8.45;6.45;;;;;;;14.88;100.00;92952.44;2106536;28;20035;-84
2021/07/28 00:57:55;;;;;;;6.82;6.13;;;;;;;14.86;100.00;92952.16;2106271;28;20054;-84
2021/07/28 00:58:57;;;;;;;10.98;6.47;;;;;;;14.85;100.00;92953.38;2106291;28;20024;-84
2021/07/28 01:00:00;;;;;;;7.65;5.85;;;;;;;14.83;100.00;92955.75;2106476;28;20027;-83
2021/07/28 01:01:01;;;;;;;9.63;6.53;;;;;;;14.85;100.00;92950.66;2106602;28;20022;-84
2021/07/28 01:02:02;;;;;;;8.95;6.47;;;;;;;14.83;100.00;92953.78;2097897;28;20028;-85
2021/07/28 01:03:03;;;;;;;9.68;7.20;;;;;;;14.82;100.00;92952.31;2095135;28;20024;-84
2021/07/28 01:04:04;;;;;;;7.72;5.97;;;;;;;14.85;100.00;92956.06;2098201;28;20103;-84
2021/07/28 01:05:06;;;;;;;6.53;5.88;;;;;;;14.80;100.00;92949.31;2114769;28;20521;-84
2021/07/28 01:06:09;;;;;;;6.15;5.55;;;;;;;14.81;100.00;92956.19;2114456;28;20043;-84
2021/07/28 01:07:10;;;;;;;6.70;6.10;;;;;;;14.78;100.00;92951.69;2108588;28;20479;-84
2021/07/28 01:08:11;;;;;;;7.18;5.93;;;;;;;14.78;100.00;92965.16;2112181;28;20026;-85
2021/07/28 01:09:12;;;;;;;6.78;6.05;;;;;;;14.80;100.00;92951.28;2096498;28;20386;-83
2021/07/28 01:10:13;;;;;;;9.85;6.07;;;;;;;14.77;100.00;92952.91;2103627;28;20499;-85
2021/07/28 01:11:22;;;;;;;6.40;5.35;;;;;;;14.76;100.00;92945.28;2105878;28;20035;-84
2021/07/28 01:12:28;;;;;;;6.25;5.65;;;;;;;14.72;100.00;92944.66;2101058;28;20110;-84
2021/07/28 01:13:31;;;;;;;7.70;6.70;;;;;;;14.74;100.00;92945.72;2104689;28;20031;-84
2021/07/28 01:14:32;;;;;;;8.48;6.30;;;;;;;14.74;100.00;92940.31;2105070;28;20407;-83
2021/07/28 01:16:39;;;;;;;12.05;6.45;;;;;;;14.71;100.00;92945.88;2106981;28;20020;-84
2021/07/28 01:17:40;;;;;;;10.43;6.25;;;;;;;14.69;100.00;92930.16;2114855;27;20011;-83
2021/07/28 01:18:43;;;;;;;9.77;6.38;;;;;;;14.63;100.00;92933.91;2114490;28;20031;-84
2021/07/28 01:19:52;;;;;;;7.40;6.38;;;;;;;14.66;100.00;92935.69;2106285;28;20415;-85
2021/07/28 01:20:53;;;;;;;7.32;6.13;;;;;;;14.56;100.00;92932.22;2107277;28;20874;-84
2021/07/28 01:21:54;;;;;;;7.70;5.88;;;;;;;14.59;100.00;92932.09;2097633;28;20043;-83
2021/07/28 01:22:57;;;;;;;6.63;6.00;;;;;;;14.60;100.00;92932.84;2106178;28;20777;-83
2021/07/28 01:23:59;;;;;;;6.63;5.93;;;;;;;14.53;100.00;92941.94;2105885;28;20139;-84
2021/07/28 01:25:01;;;;;;;6.88;6.20;;;;;;;14.59;100.00;92940.16;2092967;28;20408;-84
2021/07/28 01:26:04;;;;;;;7.57;5.82;;;;;;;14.54;100.00;92931.94;2097611;28;20393;-83
2021/07/28 01:27:06;;;;;;;6.50;5.85;;;;;;;14.52;100.00;92935.06;2097864;28;20450;-84
2021/07/28 01:28:07;;;;;;;9.43;6.00;;;;;;;14.55;100.00;92928.78;2105976;28;20556;-84
2021/07/28 01:29:10;;;;;;;6.30;5.63;;;;;;;14.53;100.00;92931.19;2104653;28;20421;-84
2021/07/28 01:30:16;;;;;;;6.07;5.47;;;;;;;14.48;100.00;92923.69;2110418;28;20027;-83
2021/07/28 01:31:18;;;;;;;7.32;5.50;;;;;;;14.45;100.00;92921.88;2107064;28;20022;-84
2021/07/28 01:32:19;;;;;;;9.60;5.45;;;;;;;14.42;100.00;92911.25;2095412;28;20466;-84
2021/07/28 01:33:20;;;;;;;7.60;5.30;;;;;;;14.40;100.00;92917.09;2105965;28;20047;-84
2021/07/28 01:34:21;;;;;;;6.38;5.40;;;;;;;14.30;100.00;92915.53;2103008;28;20043;-84
2021/07/28 01:35:24;;;;;;;9.43;6.32;;;;;;;14.26;100.00;92925.69;2097379;28;20072;-84
2021/07/28 01:36:25;;;;;;;6.03;5.13;;;;;;;14.26;100.00;92926.44;2096592;28;20054;-85
2021/07/28 01:37:29;;;;;;;7.95;5.82;;;;;;;14.26;100.00;92925.69;2099992;28;20013;-83
2021/07/28 01:38:31;;;;;;;6.72;5.65;;;;;;;14.21;100.00;92939.72;2107190;28;20688;-83
2021/07/28 01:39:32;;;;;;;6.70;5.97;;;;;;;14.17;100.00;92939.84;2105928;28;20023;-84
2021/07/28 01:40:38;;;;;;;7.75;5.75;;;;;;;14.15;100.00;92941.50;2106079;28;20085;-84
2021/07/28 01:41:39;;;;;;;6.35;5.45;;;;;;;14.08;100.00;92932.50;2099154;28;20047;-84
2021/07/28 01:42:42;;;;;;;8.43;4.85;;;;;;;14.11;100.00;92925.50;2097373;28;20048;-84
2021/07/28 01:43:43;;;;;;;7.00;6.15;;;;;;;14.10;100.00;92929.38;2101904;28;20023;-82
2021/07/28 01:44:44;;;;;;;11.50;6.18;;;;;;;14.08;100.00;92934.44;2097537;28;20111;-83
2021/07/28 01:45:45;;;;;;;8.38;5.55;;;;;;;14.03;100.00;92932.34;2105613;28;20024;-83
2021/07/28 01:46:46;;;;;;;7.47;5.80;;;;;;;14.04;100.00;92925.75;2105720;28;20089;-84
2021/07/28 01:47:47;;;;;;;7.10;5.72;;;;;;;13.97;100.00;92928.72;2105679;28;20047;-84
2021/07/28 01:48:48;;;;;;;6.18;5.55;;;;;;;13.96;100.00;92925.31;2114227;28;20030;-83
2021/07/28 01:49:48;;;;;;;7.68;5.38;;;;;;;13.93;100.00;92925.44;2105907;28;20050;-84
2021/07/28 01:50:50;;;;;;;9.52;5.40;;;;;;;13.95;100.00;92920.34;2114191;28;20384;-83
2021/07/28 01:51:51;;;;;;;12.07;5.88;;;;;;;13.95;100.00;92914.97;2106215;28;20389;-83
2021/07/28 01:52:52;;;;;;;7.38;6.03;;;;;;;13.90;100.00;92916.31;2114106;28;20019;-83
2021/07/28 01:53:53;;;;;;;5.97;5.38;;;;;;;13.86;100.00;92915.69;2105960;28;20024;-84
2021/07/28 01:54:54;;;;;;;6.43;5.82;;;;;;;13.87;100.00;92914.50;2105418;28;20032;-83
2021/07/28 01:55:58;;;;;;;7.03;5.90;;;;;;;13.83;100.00;92919.28;2105977;28;20024;-83
2021/07/28 01:56:59;;;;;;;6.28;5.40;;;;;;;13.81;100.00;92927.75;2100878;28;20382;-83
2021/07/28 01:58:01;;;;;;;9.55;5.30;;;;;;;13.85;100.00;92920.31;2105623;28;20078;-83
2021/07/28 01:59:02;;;;;;;9.02;5.78;;;;;;;13.85;100.00;92920.31;2105879;28;20031;-85
2021/07/28 02:00:03;;;;;;;7.63;6.18;;;;;;;13.83;100.00;92917.31;2105895;28;20957;-83
2021/07/28 02:01:05;;;;;;;6.88;5.20;;;;;;;13.80;100.00;92926.25;2102896;28;20024;-84
2021/07/28 02:02:06;;;;;;;9.80;5.43;;;;;;;13.83;100.00;92917.31;2105852;28;20027;-84
2021/07/28 02:03:07;;;;;;;8.38;5.63;;;;;;;13.82;100.00;92907.00;2100895;28;20015;-84
2021/07/28 02:04:09;;;;;;;6.07;5.07;;;;;;;13.75;100.00;92904.59;2114274;28;20152;-83
2021/07/28 02:05:10;;;;;;;6.45;5.72;;;;;;;13.78;100.00;92901.00;2102299;28;20036;-84
2021/07/28 02:06:11;;;;;;;7.03;5.32;;;;;;;13.84;100.00;92904.63;2102900;28;20599;-83
2021/07/28 02:07:12;;;;;;;8.23;5.10;;;;;;;13.78;100.00;92903.69;2108045;28;20117;-84
2021/07/28 02:08:15;;;;;;;8.60;5.47;;;;;;;13.74;100.00;92897.72;2101806;28;20027;-84
2021/07/28 02:09:16;;;;;;;15.52;5.68;;;;;;;13.82;100.00;92901.63;2096691;28;20016;-85
2021/07/28 02:10:17;;;;;;;7.65;5.03;;;;;;;13.82;100.00;92904.31;2097648;28;20509;-83
2021/07/28 02:11:17;;;;;;;13.00;5.53;;;;;;;13.85;100.00;92909.56;2096066;28;20021;-83
2021/07/28 02:12:18;;;;;;;6.28;5.40;;;;;;;13.85;100.00;92911.50;2096694;28;20047;-83
2021/07/28 02:13:20;;;;;;;6.40;4.90;;;;;;;13.90;100.00;92910.94;2103992;28;20031;-83
2021/07/28 02:14:21;;;;;;;7.80;5.47;;;;;;;13.91;100.00;92907.03;2111488;28;20031;-84
2021/07/28 02:15:23;;;;;;;7.22;5.63;;;;;;;13.89;100.00;92906.00;2105828;28;20032;-85
2021/07/28 02:16:24;;;;;;;5.55;4.95;;;;;;;13.91;100.00;92908.97;2097840;28;20059;-84
2021/07/28 02:17:25;;;;;;;6.20;5.60;;;;;;;13.90;100.00;92915.56;2105843;28;20467;-84
2021/07/28 02:18:26;;;;;;;6.18;5.38;;;;;;;13.84;100.00;92905.38;2105670;28;20085;-82
2021/07/28 02:19:27;;;;;;;8.50;5.50;;;;;;;13.89;100.00;92914.06;2097375;28;20020;-83
2021/07/28 02:20:28;;;;;;;7.75;5.60;;;;;;;13.93;100.00;92899.31;2105935;28;20031;-83
2021/07/28 02:21:29;;;;;;;5.95;5.20;;;;;;;13.96;100.00;92903.81;2107963;28;20020;-83
2021/07/28 02:22:30;;;;;;;8.80;5.65;;;;;;;14.00;100.00;92895.59;2113712;28;20023;-83
2021/07/28 02:23:31;;;;;;;8.73;5.43;;;;;;;13.95;100.00;92894.22;2113817;28;20026;-84
2021/07/28 02:24:32;;;;;;;7.43;5.38;;;;;;;14.08;100.00;92894.13;2105393;28;20384;-83
2021/07/28 02:25:33;;;;;;;5.45;4.63;;;;;;;14.00;100.00;92909.75;2097623;28;20394;-83
2021/07/28 02:26:34;;;;;;;8.00;5.28;;;;;;;13.94;100.00;92903.47;2113377;28;20026;-82
2021/07/28 02:27:35;;;;;;;9.35;5.38;;;;;;;13.98;100.00;92900.66;2105682;28;20078;-84
2021/07/28 02:28:36;;;;;;;5.68;5.10;;;;;;;14.01;100.00;92894.41;2091096;28;20482;-83
2021/07/28 02:29:37;;;;;;;7.20;5.60;;;;;;;13.99;100.00;92902.91;2097391;28;20028;-84
2021/07/28 02:30:38;;;;;;;7.80;5.63;;;;;;;14.00;100.00;92895.59;2104498;28;20053;-84
2021/07/28 02:31:39;;;;;;;6.80;5.57;;;;;;;13.91;100.00;92888.22;2094869;28;20024;-85
2021/07/28 02:32:40;;;;;;;5.97;5.38;;;;;;;13.92;100.00;92894.38;2096882;28;20484;-83
2021/07/28 02:33:41;;;;;;;7.95;4.95;;;;;;;13.97;100.00;92894.53;2105712;28;20016;-84
2021/07/28 02:34:42;;;;;;;5.50;4.63;;;;;;;13.97;100.00;92897.22;2097358;28;20071;-85
2021/07/28 02:35:43;;;;;;;5.55;4.80;;;;;;;13.91;100.00;92896.28;2097308;28;20537;-84
2021/07/28 02:36:44;;;;;;;7.68;4.68;;;;;;;13.95;100.00;92902.28;2104391;28;20031;-84
2021/07/28 02:37:46;;;;;;;6.75;4.90;;;;;;;13.95;100.00;92896.16;2105609;28;20017;-84
2021/07/28 02:38:47;;;;;;;7.07;4.93;;;;;;;13.94;100.00;92902.75;2093691;28;20028;-84
2021/07/28 02:39:48;;;;;;;7.63;4.45;;;;;;;13.92;100.00;92900.50;2095178;28;20658;-83
2021/07/28 02:40:49;;;;;;;10.80;5.35;;;;;;;13.91;100.00;92898.25;2096656;28;20028;-83
2021/07/28 02:41:50;;;;;;;5.60;5.00;;;;;;;13.92;100.00;92897.06;2100898;28;20476;-84
2021/07/28 02:42:50;;;;;;;5.68;4.68;;;;;;;13.88;100.00;92893.78;2112178;28;20026;-84
2021/07/28 02:43:51;;;;;;;5.70;4.57;;;;;;;13.85;100.00;92900.75;2098584;28;20031;-84
2021/07/28 02:44:52;;;;;;;5.10;4.60;;;;;;;13.83;100.00;92890.47;2105833;28;20032;-85
2021/07/28 02:45:53;;;;;;;8.55;5.20;;;;;;;13.84;100.00;92893.91;2115705;28;20024;-84
2021/07/28 02:46:54;;;;;;;5.18;4.65;;;;;;;13.87;100.00;92906.44;2122164;28;20472;-84
2021/07/28 02:47:55;;;;;;;6.70;4.95;;;;;;;13.83;100.00;92909.28;2105493;28;20027;-83
2021/07/28 02:48:56;;;;;;;5.45;4.95;;;;;;;13.85;100.00;92903.44;2097313;28;20409;-84
2021/07/28 02:49:57;;;;;;;5.25;4.75;;;;;;;13.84;100.00;92902.69;2105716;28;20016;-84
2021/07/28 02:50:58;;;;;;;8.25;4.63;;;;;;;13.86;100.00;92900.31;2113921;28;20027;-83
2021/07/28 02:51:59;;;;;;;6.05;4.97;;;;;;;13.86;100.00;92899.56;2114204;28;20053;-83
2021/07/28 02:52:59;;;;;;;5.90;4.85;;;;;;;13.85;100.00;92903.44;2113843;28;20024;-83
2021/07/28 02:54:01;;;;;;;6.00;4.18;;;;;;;13.81;100.00;92902.84;2108235;28;20024;-85
2021/07/28 02:55:06;;;;;;;7.22;5.15;;;;;;;13.78;100.00;92903.69;2105854;28;20035;-84
2021/07/28 02:56:07;;;;;;;9.82;4.82;;;;;;;13.76;100.00;92901.47;2106212;28;20062;-84
2021/07/28 02:57:07;;;;;;;6.47;5.13;;;;;;;13.79;100.00;92897.16;2097244;28;20024;-84
2021/07/28 02:58:08;;;;;;;7.43;5.10;;;;;;;13.78;100.00;92893.72;2105685;28;20035;-84
2021/07/28 02:59:09;;;;;;;5.40;4.65;;;;;;;13.82;100.00;92902.38;2102840;28;20054;-83
2021/07/28 03:00:11;;;;;;;7.20;5.10;;;;;;;13.83;100.00;92903.91;2093024;28;20070;-84
2021/07/28 03:01:12;;;;;;;9.52;5.25;;;;;;;13.81;100.00;92905.50;2092531;28;20021;-83
2021/07/28 03:02:13;;;;;;;8.15;4.90;;;;;;;13.81;100.00;92902.84;2097131;28;20374;-84
2021/07/28 03:03:14;;;;;;;6.65;5.55;;;;;;;13.75;100.00;92907.28;2113828;28;20023;-84
2021/07/28 03:04:16;;;;;;;6.10;4.93;;;;;;;13.74;100.00;92903.09;2105607;28;20539;-84
2021/07/28 03:05:17;;;;;;;6.05;5.03;;;;;;;13.78;100.00;92911.75;2105619;28;20397;-83
2021/07/28 03:06:18;;;;;;;5.28;4.78;;;;;;;13.77;100.00;92912.97;2096495;28;20123;-84
2021/07/28 03:07:19;;;;;;;7.50;4.93;;;;;;;13.76;100.00;92909.53;2105986;28;20028;-84
2021/07/28 03:08:20;;;;;;;5.40;4.90;;;;;;;13.75;100.00;92909.97;2105973;28;20225;-83
2021/07/28 03:09:21;;;;;;;5.25;4.75;;;;;;;13.65;100.00;92905.72;2098210;28;20528;-84
2021/07/28 03:10:22;;;;;;;7.55;4.47;;;;;;;13.69;100.00;92915.16;2107303;28;20039;-84
2021/07/28 03:11:23;;;;;;;5.90;4.88;;;;;;;13.72;100.00;92911.59;2098704;28;20518;-84
2021/07/28 03:12:23;;;;;;;6.25;5.13;;;;;;;13.65;100.00;92927.22;2107155;28;20031;-83
2021/07/28 03:13:24;;;;;;;5.85;4.55;;;;;;;13.68;100.00;92916.34;2104009;28;20023;-85
2021/07/28 03:14:25;;;;;;;6.50;5.38;;;;;;;13.68;100.00;92926.34;2115457;28;20019;-84
2021/07/28 03:15:26;;;;;;;8.00;4.85;;;;;;;13.63;100.00;92924.97;2107315;28;20377;-84
2021/07/28 03:16:27;;;;;;;5.28;4.70;;;;;;;13.62;100.00;92928.13;2107165;28;20024;-84
2021/07/28 03:17:28;;;;;;;6.20;4.75;;;;;;;13.58;100.00;92920.19;2105201;28;20377;-83
2021/07/28 03:18:29;;;;;;;6.70;4.60;;;;;;;13.62;100.00;92922.75;2107173;28;20107;-84
2021/07/28 03:19:30;;;;;;;5.60;4.70;;;;;;;13.56;100.00;92923.31;2107134;28;20067;-84
2021/07/28 03:20:31;;;;;;;5.70;5.07;;;;;;;13.60;100.00;92926.59;2098314;28;20021;-84
2021/07/28 03:21:33;;;;;;;5.45;4.75;;;;;;;13.56;100.00;92926.00;2098784;28;20029;-83
2021/07/28 03:22:34;;;;;;;5.28;4.72;;;;;;;13.59;100.00;92925.09;2107694;28;20020;-84
2021/07/28 03:23:35;;;;;;;5.72;5.13;;;;;;;13.62;100.00;92933.47;2115166;27;20491;-83
2021/07/28 03:24:36;;;;;;;5.68;4.82;;;;;;;13.62;100.00;92923.47;2115307;28;20016;-84
2021/07/28 03:25:36;;;;;;;7.03;4.50;;;;;;;13.62;100.00;92928.84;2105611;28;20020;-83
2021/07/28 03:26:37;;;;;;;5.72;5.15;;;;;;;13.62;100.00;92931.53;2106869;28;20048;-84
2021/07/28 03:27:38;;;;;;;5.00;4.50;;;;;;;13.61;100.00;92922.00;2098735;28;20074;-82
2021/07/28 03:28:39;;;;;;;8.57;5.10;;;;;;;13.67;100.00;92930.22;2106710;28;20024;-83
2021/07/28 03:29:40;;;;;;;5.72;5.13;;;;;;;13.63;100.00;92926.91;2098806;28;20029;-83
2021/07/28 03:30:41;;;;;;;7.53;4.78;;;;;;;13.56;100.00;92922.53;2098439;28;20035;-83
2021/07/28 03:31:42;;;;;;;8.38;4.35;;;;;;;13.57;100.00;92926.75;2107104;28;20092;-83
2021/07/28 03:32:43;;;;;;;6.03;4.72;;;;;;;13.65;100.00;92927.22;2098403;28;20027;-83
2021/07/28 03:33:44;;;;;;;7.38;5.20;;;;;;;13.63;100.00;92924.22;2115360;28;20027;-83
2021/07/28 03:34:45;;;;;;;8.05;5.57;;;;;;;13.63;100.00;92929.59;2115284;28;20020;-83
2021/07/28 03:35:46;;;;;;;5.32;4.72;;;;;;;13.58;100.00;92931.66;2098415;28;20044;-83
2021/07/28 03:36:46;;;;;;;7.35;5.32;;;;;;;13.58;100.00;92931.66;2098522;28;20082;-84
2021/07/28 03:37:47;;;;;;;6.38;5.07;;;;;;;13.56;100.00;92930.59;2102091;28;20484;-84
2021/07/28 03:38:48;;;;;;;11.68;4.78;;;;;;;13.59;100.00;92927.03;2100891;28;20032;-84
2021/07/28 03:40:00;;;;;;;6.82;4.82;;;;;;;13.54;100.00;92928.34;2105212;28;20099;-83
2021/07/28 03:41:00;;;;;;;5.07;4.57;;;;;;;13.62;100.00;92928.13;2099893;28;20059;-83
2021/07/28 03:42:01;;;;;;;5.13;4.72;;;;;;;13.59;100.00;92930.47;2096365;28;20389;-83
2021/07/28 03:43:03;;;;;;;7.60;4.85;;;;;;;13.55;100.00;92923.72;2101160;28;20024;-84
2021/07/28 03:44:04;;;;;;;9.27;4.45;;;;;;;13.55;100.00;92927.16;2103602;28;20563;-84
2021/07/28 03:45:05;;;;;;;5.20;4.70;;;;;;;13.49;100.00;92928.94;2098656;28;20384;-84
2021/07/28 03:46:06;;;;;;;7.75;5.40;;;;;;;13.41;100.00;92927.69;2102561;28;20415;-84
2021/07/28 03:47:07;;;;;;;5.63;4.22;;;;;;;13.38;100.00;92933.91;2115052;28;20024;-84
2021/07/28 03:48:09;;;;;;;7.05;5.13;;;;;;;13.44;100.00;92929.50;2106723;28;20043;-82
2021/07/28 03:49:10;;;;;;;7.95;5.57;;;;;;;13.43;100.00;92922.59;2098644;28;20473;-83
2021/07/28 03:50:11;;;;;;;7.75;5.57;;;;;;;13.43;100.00;92927.97;2107049;28;20024;-83
2021/07/28 03:51:12;;;;;;;5.00;4.38;;;;;;;13.48;100.00;92919.38;2106909;28;20066;-83
2021/07/28 03:52:13;;;;;;;4.97;4.45;;;;;;;13.51;100.00;92923.09;2098443;28;20024;-82
2021/07/28 03:53:14;;;;;;;5.22;4.72;;;;;;;13.49;100.00;92920.88;2103203;28;20024;-83
2021/07/28 03:54:15;;;;;;;5.57;4.45;;;;;;;13.48;100.00;92919.38;2114969;28;20036;-85
2021/07/28 03:55:15;;;;;;;5.50;4.82;;;;;;;13.50;100.00;92925.06;2106870;28;20028;-84
2021/07/28 03:56:22;;;;;;;7.13;4.85;;;;;;;13.50;100.00;92927.00;2106927;28;20024;-84
2021/07/28 03:57:23;;;;;;;8.77;5.28;;;;;;;13.52;100.00;92925.38;2100218;28;20092;-83
2021/07/28 03:58:24;;;;;;;12.48;5.63;;;;;;;13.50;100.00;92922.38;2106744;28;20050;-84
2021/07/28 03:59:25;;;;;;;6.32;4.68;;;;;;;13.48;100.00;92922.06;2112577;28;20023;-84
2021/07/28 04:00:26;;;;;;;5.68;5.00;;;;;;;13.47;100.00;92925.91;2115212;28;20024;-83
2021/07/28 04:01:27;;;;;;;9.30;4.78;;;;;;;13.45;100.00;92916.81;2106690;28;20024;-84
2021/07/28 04:02:28;;;;;;;5.72;4.97;;;;;;;13.42;100.00;92921.13;2115063;28;20785;-84
2021/07/28 04:03:29;;;;;;;4.63;4.22;;;;;;;13.38;100.00;92923.19;2115223;28;20030;-84
2021/07/28 04:04:30;;;;;;;5.30;4.80;;;;;;;13.43;100.00;92927.22;2104790;28;20035;-84
2021/07/28 04:05:31;;;;;;;5.85;4.60;;;;;;;13.41;100.00;92932.31;2107021;28;20405;-83
2021/07/28 04:06:31;;;;;;;5.55;4.72;;;;;;;13.44;100.00;92924.13;2107463;28;20056;-84
2021/07/28 04:07:32;;;;;;;8.52;5.40;;;;;;;13.48;100.00;92907.91;2116136;27;20468;-83
2021/07/28 04:08:33;;;;;;;5.63;4.63;;;;;;;13.48;100.00;92914.00;2106504;28;20024;-83
2021/07/28 04:09:34;;;;;;;5.93;5.15;;;;;;;13.45;100.00;92917.56;2098071;28;20916;-84
2021/07/28 04:10:37;;;;;;;5.90;5.30;;;;;;;13.44;100.00;92913.38;2098457;28;20024;-83
2021/07/28 04:11:38;;;;;;;6.72;5.53;;;;;;;13.43;100.00;92917.25;2098984;28;20029;-84
2021/07/28 04:12:39;;;;;;;5.78;4.75;;;;;;;13.48;100.00;92913.25;2098342;28;20024;-84
2021/07/28 04:13:41;;;;;;;6.60;5.05;;;;;;;13.44;100.00;92915.31;2115236;28;20472;-84
2021/07/28 04:14:42;;;;;;;8.18;5.00;;;;;;;13.45;100.00;92912.19;2114860;28;20012;-83
2021/07/28 04:15:43;;;;;;;6.82;5.05;;;;;;;13.44;100.00;92912.66;2098286;28;20028;-84
2021/07/28 04:16:44;;;;;;;4.97;4.35;;;;;;;13.45;100.00;92904.13;2098475;28;20397;-84
2021/07/28 04:17:45;;;;;;;5.47;4.90;;;;;;;13.44;100.00;92905.34;2098330;28;20031;-83
2021/07/28 04:18:46;;;;;;;7.18;5.05;;;;;;;13.51;100.00;92902.38;2100243;28;20020;-84
2021/07/28 04:19:50;;;;;;;6.53;5.30;;;;;;;13.52;100.00;92908.50;2114356;28;20023;-84
2021/07/28 04:20:51;;;;;;;5.82;5.25;;;;;;;13.50;100.00;92913.56;2106935;28;20135;-84
2021/07/28 04:21:52;;;;;;;5.80;4.55;;;;;;;13.44;100.00;92913.38;2115208;28;20468;-83
2021/07/28 04:22:53;;;;;;;6.38;5.70;;;;;;;13.46;100.00;92921.00;2114949;28;20023;-84
2021/07/28 04:23:54;;;;;;;5.97;5.28;;;;;;;13.46;100.00;92927.13;2105109;28;20111;-84
2021/07/28 04:24:55;;;;;;;5.75;5.15;;;;;;;13.45;100.00;92928.31;2105339;28;20370;-84
2021/07/28 04:25:58;;;;;;;6.53;4.55;;;;;;;13.46;100.00;92931.75;2097954;28;20093;-84
2021/07/28 04:26:59;;;;;;;5.25;4.75;;;;;;;13.44;100.00;92926.81;2106958;28;20032;-84
2021/07/28 04:28:00;;;;;;;7.78;5.90;;;;;;;13.45;100.00;92919.50;2106584;28;20024;-84
2021/07/28 04:29:01;;;;;;;6.70;4.70;;;;;;;13.39;100.00;92926.59;2106504;28;20028;-85
2021/07/28 04:30:02;;;;;;;5.55;4.25;;;;;;;13.43;100.00;92927.22;2106380;28;20038;-85
2021/07/28 04:31:03;;;;;;;10.98;5.03;;;;;;;13.41;100.00;92927.69;2098358;28;20024;-83
2021/07/28 04:32:04;;;;;;;6.70;4.97;;;;;;;13.40;100.00;92944.97;2106510;28;20024;-84
2021/07/28 04:33:05;;;;;;;5.43;4.75;;;;;;;13.38;100.00;92939.28;2114915;28;20030;-83
2021/07/28 04:34:06;;;;;;;7.20;4.55;;;;;;;13.38;100.00;92935.84;2106641;28;20016;-84
2021/07/28 04:35:07;;;;;;;7.78;5.18;;;;;;;13.39;100.00;92927.38;2105940;28;20027;-84
2021/07/28 04:36:08;;;;;;;6.32;4.90;;;;;;;13.34;100.00;92936.75;2106553;28;20028;-83
2021/07/28 04:37:09;;;;;;;5.85;4.90;;;;;;;13.36;100.00;92939.00;2100627;28;20401;-84
2021/07/28 04:38:10;;;;;;;13.30;5.00;;;;;;;13.38;100.00;92939.28;2097862;28;20032;-84
2021/07/28 04:39:11;;;;;;;7.68;5.00;;;;;;;13.33;100.00;92929.13;2097444;28;20393;-84
2021/07/28 04:40:13;;;;;;;5.85;4.88;;;;;;;13.36;100.00;92925.56;2089840;28;20025;-84
2021/07/28 04:41:14;;;;;;;5.93;4.45;;;;;;;13.34;100.00;92923.31;2090711;28;20036;-84
2021/07/28 04:42:14;;;;;;;9.02;4.82;;;;;;;13.33;100.00;92931.81;2108699;28;20028;-84
2021/07/28 04:43:15;;;;;;;5.53;5.03;;;;;;;13.29;100.00;92920.44;2106181;28;20024;-84
2021/07/28 04:44:16;;;;;;;5.90;4.90;;;;;;;13.28;100.00;92924.31;2104748;28;20413;-83
2021/07/28 04:45:18;;;;;;;5.25;4.57;;;;;;;13.32;100.00;92924.94;2106342;28;20016;-84
2021/07/28 04:46:20;;;;;;;5.47;4.97;;;;;;;13.34;100.00;92927.91;2098131;28;20397;-84
2021/07/28 04:47:21;;;;;;;6.00;5.40;;;;;;;13.38;100.00;92931.22;2099491;28;20028;-83
2021/07/28 04:48:21;;;;;;;6.55;5.25;;;;;;;13.38;100.00;92935.84;2114474;28;20028;-83
2021/07/28 04:49:22;;;;;;;5.63;4.70;;;;;;;13.42;100.00;92942.59;2105983;28;20028;-84
2021/07/28 04:50:23;;;;;;;5.18;4.40;;;;;;;13.41;100.00;92945.72;2101273;28;20029;-84